DLH8CF EDDM-LICJ
Flight info
| Callsign | DLH8CF |
|---|---|
| Flight time | N/A |
| Altitude | 37000 |
| Route | TURBU6E/08R TURBU Y107 TOBSO DCT BAKOR DCT SOVUB DCT RITEB DCT GIANO |
| Aircraft | A319/M-SDE2E3FGIJ1LORWXYZ/HB1 |
Departure
| Time | 2026-05-01 15:33 |
|---|---|
| Airport | Munich Airport (EDDM) |
Arrival
| Time | N/A |
|---|---|
| Airport | Falcone–Borsellino Airport (LICJ) |
| Time | Latitude | Longitude | Altitude | Speed | Heading |
|---|---|---|---|---|---|
| 2026-05-01 14:56 | 48.35739 | 11.79260 | 1473 ft | 0 kts | 263° |
| 2026-05-01 15:15 | 48.35741 | 11.79280 | 1485 ft | 3 kts | 263° |
| 2026-05-01 15:15 | 48.35746 | 11.79340 | 1473 ft | 3 kts | 263° |
| 2026-05-01 15:16 | 48.35760 | 11.79392 | 1481 ft | 3 kts | 206° |
| 2026-05-01 15:16 | 48.35787 | 11.79396 | 1477 ft | 2 kts | 173° |
| 2026-05-01 15:17 | 48.35792 | 11.79395 | 1477 ft | 0 kts | 173° |
| 2026-05-01 15:20 | 48.35784 | 11.79397 | 1478 ft | 4 kts | 173° |
| 2026-05-01 15:20 | 48.35751 | 11.79402 | 1478 ft | 5 kts | 173° |
| 2026-05-01 15:21 | 48.35714 | 11.79409 | 1476 ft | 6 kts | 173° |
| 2026-05-01 15:21 | 48.35672 | 11.79416 | 1482 ft | 6 kts | 173° |
| 2026-05-01 15:21 | 48.35626 | 11.79424 | 1485 ft | 7 kts | 173° |
| 2026-05-01 15:21 | 48.35561 | 11.79435 | 1475 ft | 14 kts | 173° |
| 2026-05-01 15:22 | 48.35357 | 11.79471 | 1485 ft | 15 kts | 173° |
| 2026-05-01 15:22 | 48.35251 | 11.79489 | 1483 ft | 15 kts | 173° |
| 2026-05-01 15:22 | 48.35144 | 11.79508 | 1485 ft | 15 kts | 173° |
| 2026-05-01 15:23 | 48.35041 | 11.79526 | 1485 ft | 9 kts | 173° |
| 2026-05-01 15:23 | 48.34978 | 11.79537 | 1485 ft | 10 kts | 173° |
| 2026-05-01 15:23 | 48.34916 | 11.79547 | 1474 ft | 8 kts | 174° |
| 2026-05-01 15:23 | 48.34883 | 11.79552 | 1484 ft | 0 kts | 174° |
| 2026-05-01 15:24 | 48.34879 | 11.79553 | 1482 ft | 1 kts | 174° |
| 2026-05-01 15:24 | 48.34869 | 11.79555 | 1478 ft | 2 kts | 174° |
| 2026-05-01 15:24 | 48.34842 | 11.79559 | 1480 ft | 7 kts | 174° |
| 2026-05-01 15:24 | 48.34788 | 11.79516 | 1484 ft | 12 kts | 247° |
| 2026-05-01 15:25 | 48.34779 | 11.79387 | 1485 ft | 13 kts | 265° |
| 2026-05-01 15:25 | 48.34768 | 11.79256 | 1485 ft | 13 kts | 262° |
| 2026-05-01 15:25 | 48.34757 | 11.79123 | 1485 ft | 13 kts | 263° |
| 2026-05-01 15:25 | 48.34747 | 11.78986 | 1485 ft | 13 kts | 264° |
| 2026-05-01 15:26 | 48.34737 | 11.78847 | 1477 ft | 13 kts | 264° |
| 2026-05-01 15:26 | 48.34727 | 11.78705 | 1485 ft | 14 kts | 264° |
| 2026-05-01 15:26 | 48.34716 | 11.78562 | 1482 ft | 14 kts | 262° |
| 2026-05-01 15:26 | 48.34703 | 11.78416 | 1485 ft | 14 kts | 263° |
| 2026-05-01 15:27 | 48.34692 | 11.78269 | 1481 ft | 14 kts | 263° |
| 2026-05-01 15:27 | 48.34681 | 11.78121 | 1479 ft | 15 kts | 263° |
| 2026-05-01 15:27 | 48.34666 | 11.77936 | 1473 ft | 19 kts | 263° |
| 2026-05-01 15:28 | 48.34635 | 11.77536 | 1481 ft | 19 kts | 263° |
| 2026-05-01 15:28 | 48.34620 | 11.77334 | 1485 ft | 19 kts | 263° |
| 2026-05-01 15:28 | 48.34605 | 11.77133 | 1485 ft | 19 kts | 263° |
| 2026-05-01 15:29 | 48.34573 | 11.76730 | 1485 ft | 19 kts | 263° |
| 2026-05-01 15:29 | 48.34558 | 11.76528 | 1485 ft | 19 kts | 263° |
| 2026-05-01 15:29 | 48.34527 | 11.76123 | 1485 ft | 19 kts | 263° |
| 2026-05-01 15:30 | 48.34496 | 11.75722 | 1485 ft | 19 kts | 263° |
| 2026-05-01 15:31 | 48.34298 | 11.75237 | 1479 ft | 13 kts | 173° |
| 2026-05-01 15:31 | 48.34197 | 11.75255 | 1482 ft | 0 kts | 173° |
| 2026-05-01 15:32 | 48.34101 | 11.75315 | 1485 ft | 13 kts | 122° |
| 2026-05-01 15:32 | 48.34177 | 11.76498 | 1486 ft | 133 kts | 83° |
| 2026-05-01 15:33 | 48.34617 | 11.82188 | 2890 ft | 216 kts | 84° |
| 2026-05-01 15:34 | 48.35133 | 11.89242 | 5810 ft | 234 kts | 84° |